Time;durP1;ratioP1;P1;durP2;ratioP2;P2;SDS_P1;SDS_P2;PMS_P1;PMS_P2;Temp;Humidity;BMP_temperature;BMP_pressure;BME280_temperature;BME280_humidity;BME280_pressure;Samples;Min_cycle;Max_cycle;Signal;HPM_P1;HPM_P2
2023/12/07 00:00:08;;;;;;;38.17;15.93;;;;;;;17.79;65.33;98710.25;2080765;28;20160;-71
2023/12/07 00:01:10;;;;;;;25.60;13.80;;;;;;;17.80;65.23;98706.53;2080896;28;20048;-68
2023/12/07 00:02:12;;;;;;;35.67;14.35;;;;;;;17.80;65.40;98698.47;2081755;28;20049;-68
2023/12/07 00:03:15;;;;;;;30.30;15.57;;;;;;;17.78;65.48;98706.72;2081965;28;20697;-68
2023/12/07 00:04:16;;;;;;;35.50;13.88;;;;;;;17.80;65.31;98709.22;2082221;28;20045;-67
2023/12/07 00:05:19;;;;;;;;;;;;;;;17.68;65.68;98706.22;2084417;28;20128;-67
2023/12/07 00:06:20;;;;;;;30.02;14.48;;;;;;;17.69;65.69;98699.84;2079958;28;19929;-68
2023/12/07 00:07:21;;;;;;;;;;;;;;;17.63;65.81;98714.88;2083317;28;20123;-67
2023/12/07 00:08:22;;;;;;;28.27;13.57;;;;;;;17.68;65.90;98708.91;2082587;28;19994;-67
2023/12/07 00:09:24;;;;;;;;;;;;;;;17.63;65.83;98705.97;2084360;28;20041;-68
2023/12/07 00:10:25;;;;;;;25.42;13.52;;;;;;;17.67;65.64;98704.56;2084154;28;19921;-68
2023/12/07 00:11:26;;;;;;;;;;;;;;;17.62;65.80;98707.81;2083613;28;20102;-67
2023/12/07 00:12:27;;;;;;;29.38;14.05;;;;;;;17.67;65.76;98704.56;2082742;28;19924;-71
2023/12/07 00:13:28;;;;;;;;;;;;;;;17.61;65.86;98713.41;2081729;28;20776;-68
2023/12/07 00:14:30;;;;;;;35.37;12.67;;;;;;;17.62;66.07;98707.81;2079945;28;20058;-71
2023/12/07 00:15:31;;;;;;;30.30;13.07;;;;;;;17.68;65.60;98708.91;2082704;28;20307;-68
2023/12/07 00:16:33;;;;;;;;;;;;;;;17.60;65.90;98707.19;2083971;28;20450;-69
2023/12/07 00:17:33;;;;;;;;;;;;;;;17.56;66.18;98705.09;2086322;28;19928;-68
2023/12/07 00:18:35;;;;;;;26.23;12.27;;;;;;;17.61;66.37;98705.34;2083177;28;19924;-68
2023/12/07 00:19:36;;;;;;;25.30;13.00;;;;;;;17.68;65.90;98702.72;2084601;28;20045;-68
2023/12/07 00:20:39;;;;;;;;;;;;;;;17.59;66.23;98702.84;2083925;28;20099;-68
2023/12/07 00:21:40;;;;;;;27.58;12.68;;;;;;;17.62;66.32;98707.81;2082575;28;19928;-69
2023/12/07 00:22:42;;;;;;;;;;;;;;;17.57;66.13;98707.56;2082379;28;20419;-69
2023/12/07 00:23:43;;;;;;;27.88;12.88;;;;;;;17.61;66.40;98708.84;2082051;28;20374;-68
2023/12/07 00:24:45;;;;;;;;;;;;;;;17.54;66.30;98710.66;2083560;28;20045;-68
2023/12/07 00:25:46;;;;;;;30.17;14.00;;;;;;;17.59;66.32;98707.41;2083013;28;19944;-70
2023/12/07 00:26:46;;;;;;;;;;;;;;;17.54;66.44;98715.19;2085474;28;20041;-68
2023/12/07 00:27:48;;;;;;;24.67;12.00;;;;;;;17.58;66.34;98706.56;2084210;28;20023;-71
2023/12/07 00:28:49;;;;;;;34.65;13.55;;;;;;;17.60;66.29;98703.69;2084788;28;20049;-68
2023/12/07 00:29:51;;;;;;;;;;;;;;;17.53;66.21;98709.00;2084769;28;20668;-68
2023/12/07 00:30:52;;;;;;;31.83;13.85;;;;;;;17.56;66.16;98708.59;2083773;28;19933;-70
2023/12/07 00:31:54;;;;;;;;;;;;;;;17.50;66.24;98701.34;2082286;28;20033;-67
2023/12/07 00:32:55;;;;;;;22.90;10.88;;;;;;;17.54;66.30;98699.91;2082874;28;19924;-68
2023/12/07 00:33:56;;;;;;;33.78;13.43;;;;;;;17.59;66.08;98702.03;2079728;28;20393;-68
2023/12/07 00:34:58;;;;;;;;;;;;;;;17.51;66.27;98708.34;2084558;28;20080;-68
2023/12/07 00:36:00;;;;;;;27.58;11.40;;;;;;;17.54;66.35;98697.25;2079957;28;19932;-68
2023/12/07 00:37:03;;;;;;;25.98;11.20;;;;;;;17.59;66.27;98702.03;2081530;28;20060;-68
2023/12/07 00:38:06;;;;;;;23.42;11.93;;;;;;;17.60;66.12;98701.81;2082506;28;20056;-68
2023/12/07 00:39:08;;;;;;;26.45;11.25;;;;;;;17.60;66.09;98701.81;2078182;28;20041;-68
2023/12/07 00:40:10;;;;;;;25.52;12.07;;;;;;;17.60;66.01;98698.31;2082042;28;20056;-68
2023/12/07 00:41:12;;;;;;;24.05;11.88;;;;;;;17.60;65.97;98699.13;2084435;28;20175;-69
2023/12/07 00:42:13;;;;;;;27.50;12.38;;;;;;;17.61;66.08;98692.78;2083233;28;20041;-68
2023/12/07 00:43:13;;;;;;;;;;;;;;;17.52;66.11;98695.78;2081296;28;20049;-67
2023/12/07 00:44:15;;;;;;;27.17;9.53;;;;;;;17.53;66.26;98703.63;2082502;28;19917;-68
2023/12/07 00:45:16;;;;;;;28.88;11.57;;;;;;;17.56;66.04;98705.09;2082223;28;20348;-67
2023/12/07 00:46:18;;;;;;;;;;;;;;;17.47;66.33;98698.22;2085028;28;20163;-68
2023/12/07 00:47:19;;;;;;;19.30;10.65;;;;;;;17.49;66.37;98698.84;2082771;28;19921;-68
2023/12/07 00:48:21;;;;;;;23.48;10.52;;;;;;;17.53;66.22;98698.28;2084580;28;20056;-68
2023/12/07 00:49:22;;;;;;;26.80;11.13;;;;;;;17.56;66.03;98697.06;2084675;28;20041;-68
2023/12/07 00:50:23;;;;;;;;;;;;;;;17.46;66.25;98697.38;2086008;28;20044;-68
2023/12/07 00:51:26;;;;;;;23.47;9.53;;;;;;;17.50;66.29;98698.66;2082888;28;20379;-69
2023/12/07 00:52:27;;;;;;;24.65;10.35;;;;;;;17.53;66.12;98700.13;2084606;28;20588;-69
2023/12/07 00:53:29;;;;;;;;;;;;;;;17.44;66.21;98702.13;2083931;28;20044;-69
2023/12/07 00:54:30;;;;;;;21.55;10.15;;;;;;;17.45;66.22;98701.09;2083180;28;20399;-68
2023/12/07 00:55:32;;;;;;;;;;;;;;;17.39;66.40;98708.06;2086755;28;20049;-67
2023/12/07 00:56:34;;;;;;;19.65;9.75;;;;;;;17.43;66.29;98703.13;2088239;28;19929;-70
2023/12/07 00:57:34;;;;;;;25.40;10.60;;;;;;;17.46;65.98;98702.75;2080662;28;20055;-68
2023/12/07 00:58:38;;;;;;;;;;;;;;;17.38;66.46;98705.56;2084808;28;20045;-67
2023/12/07 00:59:39;;;;;;;19.70;9.02;;;;;;;17.44;66.21;98702.13;2082605;28;20427;-68
2023/12/07 01:00:41;;;;;;;;;;;;;;;17.36;66.24;98713.00;2081710;28;20049;-68
2023/12/07 01:01:41;;;;;;;22.63;9.90;;;;;;;17.41;66.15;98714.06;2081368;28;19928;-68
2023/12/07 01:02:43;;;;;;;;;;;;;;;17.36;66.48;98713.00;2081518;28;20708;-70
2023/12/07 01:03:44;;;;;;;21.88;10.35;;;;;;;17.40;66.24;98716.94;2079322;28;19978;-69
2023/12/07 01:04:45;;;;;;;;;;;;;;;17.33;66.18;98710.72;2085602;28;20103;-67
2023/12/07 01:05:47;;;;;;;19.60;10.53;;;;;;;17.38;66.31;98718.97;2082028;28;20322;-68
2023/12/07 01:06:49;;;;;;;28.30;10.15;;;;;;;17.40;66.16;98722.28;2082223;28;20280;-68
2023/12/07 01:07:51;;;;;;;20.13;8.45;;;;;;;17.42;66.04;98720.25;2082704;28;20053;-68
2023/12/07 01:08:52;;;;;;;24.30;10.00;;;;;;;17.45;65.83;98724.41;2085491;28;20045;-68
2023/12/07 01:09:52;;;;;;;;;;;;;;;17.34;66.31;98728.44;2085571;28;20130;-68
2023/12/07 01:10:54;;;;;;;21.92;9.15;;;;;;;17.37;66.07;98725.38;2084185;28;19928;-69
2023/12/07 01:11:57;;;;;;;16.33;9.73;;;;;;;17.41;66.04;98724.81;2082193;28;20045;-69
2023/12/07 01:12:59;;;;;;;19.63;8.60;;;;;;;17.41;66.13;98732.00;2085416;28;20075;-69
2023/12/07 01:14:00;;;;;;;17.98;9.02;;;;;;;17.42;66.03;98734.50;2083084;28;20095;-68
2023/12/07 01:15:01;;;;;;;;;;;;;;;17.33;66.09;98734.84;2083081;28;20056;-68
2023/12/07 01:16:03;;;;;;;23.53;9.27;;;;;;;17.33;66.29;98738.34;2082562;28;20315;-68
2023/12/07 01:17:04;;;;;;;27.08;11.13;;;;;;;17.36;66.24;98742.50;2082191;28;20368;-68
2023/12/07 01:18:05;;;;;;;;;;;;;;;17.28;66.44;98746.13;2083076;28;20074;-71
2023/12/07 01:19:07;;;;;;;18.05;8.80;;;;;;;17.33;66.21;98748.25;2083245;28;19924;-68
2023/12/07 01:20:12;;;;;;;17.98;8.20;;;;;;;17.36;66.10;98750.53;2083534;28;20338;-68
2023/12/07 01:21:14;;;;;;;20.85;9.38;;;;;;;17.35;66.13;98743.50;2083267;28;20052;-67
2023/12/07 01:22:17;;;;;;;19.85;9.27;;;;;;;17.36;66.12;98747.84;2079755;28;20070;-67
2023/12/07 01:23:17;;;;;;;22.38;10.25;;;;;;;17.38;66.12;98748.47;2082421;28;20428;-67
2023/12/07 01:24:19;;;;;;;;;;;;;;;17.26;66.30;98744.66;2081524;28;20053;-64
2023/12/07 01:25:21;;;;;;;;;;;;;;;17.17;66.48;98757.34;2084861;28;19921;-67
2023/12/07 01:26:23;;;;;;;17.60;8.38;;;;;;;17.24;66.49;98752.06;2082964;28;20328;-68
2023/12/07 01:27:24;;;;;;;18.08;9.05;;;;;;;17.29;66.46;98755.81;2085644;28;20580;-68
2023/12/07 01:28:24;;;;;;;;;;;;;;;17.23;66.58;98758.44;2085756;28;20103;-67
2023/12/07 01:29:26;;;;;;;21.43;8.93;;;;;;;17.24;66.57;98754.72;2087790;28;19929;-68
2023/12/07 01:30:27;;;;;;;19.05;9.23;;;;;;;17.27;66.49;98757.03;2083655;28;20049;-67
2023/12/07 01:31:28;;;;;;;;;;;;;;;17.20;66.59;98762.34;2082357;28;20057;-67
2023/12/07 01:32:30;;;;;;;23.90;8.40;;;;;;;17.23;66.42;98755.75;2084616;28;19967;-67
2023/12/07 01:33:31;;;;;;;19.60;8.50;;;;;;;17.26;66.26;98763.41;2081526;28;20306;-67
2023/12/07 01:34:33;;;;;;;;;;;;;;;17.17;66.60;98757.34;2081708;28;20053;-68
2023/12/07 01:35:34;;;;;;;20.35;7.97;;;;;;;17.23;66.45;98756.59;2083999;28;19927;-68
2023/12/07 01:36:36;;;;;;;;;;;;;;;17.15;66.63;98754.84;2083221;28;20056;-69
2023/12/07 01:37:38;;;;;;;19.88;8.98;;;;;;;17.19;66.50;98748.09;2083704;28;20611;-68
2023/12/07 01:38:40;;;;;;;19.17;8.43;;;;;;;17.24;66.41;98758.22;2083561;28;20055;-68
2023/12/07 01:39:42;;;;;;;17.92;8.90;;;;;;;17.25;66.41;98759.91;2083974;28;20045;-68
2023/12/07 01:40:44;;;;;;;16.67;7.65;;;;;;;17.27;66.26;98754.34;2084099;28;20071;-69
2023/12/07 01:41:45;;;;;;;19.33;9.05;;;;;;;17.27;66.08;98759.69;2083519;28;20158;-68
2023/12/07 01:42:52;;;;;;;;;;;;;;;17.16;66.41;98756.53;2086022;28;20061;-69
2023/12/07 01:43:54;;;;;;;17.60;8.75;;;;;;;17.17;66.54;98755.50;2080770;28;19932;-68
2023/12/07 01:44:55;;;;;;;;;;;;;;;17.09;66.80;98760.97;2085927;28;20048;-68
2023/12/07 01:45:58;;;;;;;18.33;8.10;;;;;;;17.12;66.58;98760.59;2083244;28;19970;-69
2023/12/07 01:47:00;;;;;;;17.10;8.00;;;;;;;17.15;66.56;98765.56;2083148;28;20476;-67
2023/12/07 01:48:01;;;;;;;12.05;7.68;;;;;;;17.18;66.41;98769.72;2082727;28;20171;-68
2023/12/07 01:49:03;;;;;;;13.75;7.22;;;;;;;17.20;66.31;98768.53;2084088;28;20637;-68
2023/12/07 01:50:06;;;;;;;24.35;8.55;;;;;;;17.19;66.31;98766.88;2080953;28;20045;-69
2023/12/07 01:51:10;;;;;;;13.70;8.15;;;;;;;17.22;66.17;98765.66;2084605;28;20048;-68
2023/12/07 01:52:11;;;;;;;19.92;8.23;;;;;;;17.18;66.24;98767.88;2086242;28;20113;-68
2023/12/07 01:53:15;;;;;;;14.25;7.68;;;;;;;17.18;66.15;98770.56;2084185;28;20106;-69
2023/12/07 01:54:17;;;;;;;15.60;7.60;;;;;;;17.16;66.22;98772.63;2083126;28;20045;-69
2023/12/07 01:55:19;;;;;;;18.80;8.90;;;;;;;17.17;66.21;98768.91;2082167;28;20507;-68
2023/12/07 01:56:21;;;;;;;13.90;7.80;;;;;;;17.16;66.15;98766.41;2080571;28;20080;-68
2023/12/07 01:57:22;;;;;;;13.00;7.25;;;;;;;17.17;66.24;98768.91;2082166;28;20053;-68
2023/12/07 01:58:23;;;;;;;;;;;;;;;17.05;66.43;98769.59;2081548;28;20045;-68
2023/12/07 01:59:25;;;;;;;15.73;6.97;;;;;;;17.08;66.33;98774.59;2081678;28;19925;-68
2023/12/07 02:00:27;;;;;;;16.73;7.13;;;;;;;17.10;66.15;98768.00;2084463;28;20101;-68
2023/12/07 02:01:29;;;;;;;13.75;6.78;;;;;;;17.12;66.07;98765.97;2083900;28;20148;-68
2023/12/07 02:02:30;;;;;;;18.95;7.57;;;;;;;17.12;66.10;98770.50;2086575;28;20182;-68
2023/12/07 02:03:32;;;;;;;;;;;;;;;17.02;66.30;98776.19;2084082;28;20049;-68
2023/12/07 02:04:34;;;;;;;14.20;7.50;;;;;;;17.06;66.25;98777.44;2085069;28;19925;-68
2023/12/07 02:05:37;;;;;;;13.25;7.15;;;;;;;17.10;65.98;98775.22;2082897;28;20053;-68
2023/12/07 02:06:38;;;;;;;10.43;6.18;;;;;;;17.07;66.08;98780.94;2086529;28;20172;-68
2023/12/07 02:07:41;;;;;;;;;;;;;;;16.98;66.30;98780.25;2085414;28;20106;-68
2023/12/07 02:08:44;;;;;;;18.25;7.30;;;;;;;17.00;66.08;98778.22;2082108;28;19967;-71
2023/12/07 02:09:45;;;;;;;14.45;7.45;;;;;;;17.03;66.60;98780.50;2085424;28;20037;-67
2023/12/07 02:10:46;;;;;;;;;;;;;;;16.96;66.60;98782.28;2085466;28;20507;-68
2023/12/07 02:11:47;;;;;;;14.35;6.60;;;;;;;16.98;66.38;98780.25;2084499;28;19929;-68
2023/12/07 02:12:48;;;;;;;;;;;;;;;16.89;66.56;98779.53;2086924;28;20099;-68
2023/12/07 02:13:54;;;;;;;13.13;7.00;;;;;;;16.94;66.52;98782.47;2082717;28;19967;-69
2023/12/07 02:14:56;;;;;;;13.48;6.60;;;;;;;17.01;66.49;98779.84;2085517;28;20136;-68
2023/12/07 02:16:00;;;;;;;10.90;6.22;;;;;;;17.02;66.22;98778.84;2085793;28;20053;-68
2023/12/07 02:17:12;;;;;;;15.75;7.15;;;;;;;17.03;66.09;98772.47;2082832;28;20049;-67
2023/12/07 02:18:19;;;;;;;9.40;5.70;;;;;;;17.02;66.14;98772.66;2085384;28;20049;-68
2023/12/07 02:19:43;;;;;;;16.88;6.63;;;;;;;16.97;66.06;98776.75;2084178;28;20511;-69
2023/12/07 02:20:51;;;;;;;19.20;6.07;;;;;;;16.96;66.40;98775.06;2082270;28;20041;-67
2023/12/07 02:21:59;;;;;;;16.65;6.47;;;;;;;16.97;66.68;98773.22;2084118;28;20048;-68
2023/12/07 02:23:02;;;;;;;13.60;6.03;;;;;;;16.95;66.47;98780.63;2085865;28;20053;-67
2023/12/07 02:24:07;;;;;;;19.77;7.07;;;;;;;16.97;66.71;98781.28;2082931;28;20049;-68
2023/12/07 02:25:10;;;;;;;13.10;6.40;;;;;;;16.95;66.30;98776.09;2082704;28;20469;-68
2023/12/07 02:26:13;;;;;;;13.95;5.95;;;;;;;16.96;66.44;98782.28;2086011;28;20420;-68
2023/12/07 02:27:17;;;;;;;16.27;6.88;;;;;;;16.97;66.28;98784.78;2082131;28;20077;-68
2023/12/07 02:28:18;;;;;;;10.55;5.72;;;;;;;16.95;66.21;98775.25;2084291;28;20095;-68
2023/12/07 02:29:19;;;;;;;;;;;;;;;16.83;66.71;98779.47;2084813;28;20095;-66
2023/12/07 02:30:20;;;;;;;14.93;6.18;;;;;;;16.84;66.78;98778.44;2084466;28;19920;-69
2023/12/07 02:31:22;;;;;;;;;;;;;;;16.75;66.79;98772.34;2084253;28;20569;-67
2023/12/07 02:32:24;;;;;;;11.13;5.90;;;;;;;16.79;66.84;98779.00;2084975;28;20016;-70
2023/12/07 02:33:25;;;;;;;;;;;;;;;16.71;67.06;98777.22;2084041;28;20491;-68
2023/12/07 02:34:26;;;;;;;18.77;7.45;;;;;;;16.79;66.92;98775.50;2083290;28;19925;-67
2023/12/07 02:35:29;;;;;;;;;;;;;;;16.71;67.10;98779.88;2086137;28;20462;-67
2023/12/07 02:36:32;;;;;;;13.82;7.47;;;;;;;16.74;66.77;98774.19;2084201;28;20020;-67
2023/12/07 02:37:38;;;;;;;13.43;5.80;;;;;;;16.81;66.56;98778.81;2085376;28;20045;-68
2023/12/07 02:38:40;;;;;;;16.63;6.15;;;;;;;16.84;66.61;98779.25;2085230;28;20396;-68
2023/12/07 02:39:43;;;;;;;9.82;5.45;;;;;;;16.86;66.53;98787.94;2086178;28;20045;-67
2023/12/07 02:40:46;;;;;;;9.18;5.53;;;;;;;16.86;66.59;98785.28;2082396;28;20110;-68
2023/12/07 02:41:49;;;;;;;14.00;6.65;;;;;;;16.86;66.41;98781.75;2085053;28;20044;-68
2023/12/07 02:42:53;;;;;;;10.80;5.70;;;;;;;16.88;66.57;98787.75;2082288;28;20053;-68
2023/12/07 02:43:57;;;;;;;11.43;5.57;;;;;;;16.85;66.36;98791.63;2084197;28;20592;-69
2023/12/07 02:44:58;;;;;;;10.80;6.18;;;;;;;16.82;66.49;98791.19;2083694;28;21693;-68
2023/12/07 02:46:00;;;;;;;15.00;5.85;;;;;;;16.81;66.41;98789.53;2083234;28;20072;-68
2023/12/07 02:47:02;;;;;;;13.77;5.60;;;;;;;16.84;66.43;98795.34;2082343;28;20049;-68
2023/12/07 02:48:04;;;;;;;14.10;5.60;;;;;;;16.82;66.33;98785.81;2083326;28;20511;-68
2023/12/07 02:49:05;;;;;;;10.52;5.05;;;;;;;16.80;66.11;98791.38;2083417;28;20123;-68
2023/12/07 02:50:07;;;;;;;;;;;;;;;16.70;66.46;98790.81;2084819;28;20044;-68
2023/12/07 02:51:08;;;;;;;12.15;6.60;;;;;;;16.70;66.59;98794.31;2083571;28;19921;-68
2023/12/07 02:52:09;;;;;;;;;;;;;;;16.61;66.73;98791.94;2085517;28;20041;-68
2023/12/07 02:53:11;;;;;;;11.93;6.07;;;;;;;16.64;66.71;98789.72;2083949;28;19917;-68
2023/12/07 02:54:12;;;;;;;11.30;5.13;;;;;;;16.70;66.63;98788.97;2082484;28;20094;-69
2023/12/07 02:55:14;;;;;;;;;;;;;;;16.61;66.74;98797.28;2083350;28;20041;-68
2023/12/07 02:56:15;;;;;;;9.57;4.90;;;;;;;16.66;66.76;98787.69;2084421;28;19920;-68
2023/12/07 02:57:15;;;;;;;;;;;;;;;16.60;66.79;98790.25;2084692;28;20155;-68
2023/12/07 02:58:19;;;;;;;10.25;5.45;;;;;;;16.66;66.88;98787.69;2083304;28;19921;-69
2023/12/07 02:59:20;;;;;;;11.50;5.20;;;;;;;16.68;66.49;98787.47;2084474;28;20071;-69
2023/12/07 03:00:22;;;;;;;;;;;;;;;16.58;66.75;98790.47;2082150;28;20048;-68
2023/12/07 03:01:23;;;;;;;9.80;5.07;;;;;;;16.60;66.93;98793.75;2084672;28;20392;-68
2023/12/07 03:02:23;;;;;;;;;;;;;;;16.54;66.79;98797.19;2082904;28;20051;-70
2023/12/07 03:03:25;;;;;;;8.57;4.83;;;;;;;16.59;66.64;98791.28;2086447;28;19921;-67
2023/12/07 03:04:26;;;;;;;8.77;5.57;;;;;;;16.60;66.62;98783.06;2085314;28;20094;-68
2023/12/07 03:05:28;;;;;;;;;;;;;;;16.53;66.69;98790.19;2084864;28;20048;-68
2023/12/07 03:06:28;;;;;;;;;;;;;;;16.40;67.08;98788.16;2084015;28;19920;-68
2023/12/07 03:07:31;;;;;;;7.45;4.18;;;;;;;16.48;66.88;98781.88;2084932;28;19960;-68
2023/12/07 03:08:31;;;;;;;9.55;5.30;;;;;;;16.56;66.49;98787.13;2085762;28;20661;-68
2023/12/07 03:09:33;;;;;;;;;;;;;;;16.44;66.72;98789.47;2084604;28;20063;-69
2023/12/07 03:10:34;;;;;;;10.05;4.97;;;;;;;16.51;66.73;98786.84;2082400;28;19970;-69
2023/12/07 03:11:36;;;;;;;;;;;;;;;16.43;66.66;98786.94;2082849;28;20119;-73
2023/12/07 03:12:37;;;;;;;12.88;4.82;;;;;;;16.47;66.92;98782.91;2084983;28;19928;-68
2023/12/07 03:13:40;;;;;;;;;;;;;;;16.37;67.06;98782.34;2083183;28;20052;-68
2023/12/07 03:14:41;;;;;;;7.70;4.50;;;;;;;16.43;67.05;98781.59;2084774;28;19925;-68
2023/12/07 03:15:42;;;;;;;;;;;;;;;16.36;67.02;98776.16;2085043;28;20105;-69
2023/12/07 03:16:43;;;;;;;10.98;4.65;;;;;;;16.44;66.90;98789.47;2084938;28;19932;-68
2023/12/07 03:17:45;;;;;;;;;;;;;;;16.38;66.77;98784.00;2085509;28;20044;-68
2023/12/07 03:18:46;;;;;;;;;;;;;;;16.31;67.07;98791.94;2084240;28;20005;-68
2023/12/07 03:19:48;;;;;;;8.02;4.47;;;;;;;16.38;66.91;98790.22;2085750;28;19987;-68
2023/12/07 03:20:50;;;;;;;9.30;4.25;;;;;;;16.45;66.66;98785.75;2081981;28;20092;-68
2023/12/07 03:21:52;;;;;;;9.40;4.47;;;;;;;16.53;66.41;98791.00;2083481;28;20160;-68
2023/12/07 03:22:53;;;;;;;7.90;3.95;;;;;;;16.50;66.28;98793.25;2082365;28;20519;-69
2023/12/07 03:23:55;;;;;;;8.02;4.30;;;;;;;16.54;66.09;98787.31;2084849;28;20538;-69
2023/12/07 03:24:56;;;;;;;7.03;3.95;;;;;;;16.52;66.26;98792.03;2080315;28;20504;-68
2023/12/07 03:25:58;;;;;;;;;;;;;;;16.42;66.44;98790.66;2082120;28;20131;-68
2023/12/07 03:26:59;;;;;;;6.45;3.58;;;;;;;16.45;66.42;98792.97;2081017;28;20310;-68
2023/12/07 03:28:00;;;;;;;;;;;;;;;16.37;66.53;98791.19;2083614;28;20041;-67
2023/12/07 03:29:02;;;;;;;;;;;;;;;16.27;67.04;98793.34;2084784;28;20469;-68
2023/12/07 03:30:06;;;;;;;9.68;3.53;;;;;;;16.35;66.80;98795.06;2083727;28;20345;-68
2023/12/07 03:31:07;;;;;;;16.13;5.63;;;;;;;16.42;66.34;98790.66;2082310;28;20045;-68
2023/12/07 03:32:08;;;;;;;;;;;;;;;16.35;66.48;98790.53;2083818;28;20041;-68
2023/12/07 03:33:09;;;;;;;10.52;4.80;;;;;;;16.39;66.81;98791.03;2080847;28;26263;-68
2023/12/07 03:34:12;;;;;;;;;;;;;;;16.30;66.76;98787.63;2085450;28;20044;-68
2023/12/07 03:35:13;;;;;;;8.25;3.85;;;;;;;16.36;66.57;98784.19;2084097;28;19929;-68
2023/12/07 03:36:15;;;;;;;;;;;;;;;16.29;66.63;98786.75;2076876;28;20056;-69
2023/12/07 03:37:16;;;;;;;10.10;5.15;;;;;;;16.37;66.60;98782.34;2084211;28;19966;-68
2023/12/07 03:38:16;;;;;;;;;;;;;;;16.30;66.86;98779.59;2083536;28;20050;-68
2023/12/07 03:39:21;;;;;;;9.43;4.03;;;;;;;16.37;66.69;98779.66;2080953;28;20432;-68
2023/12/07 03:40:22;;;;;;;9.32;4.38;;;;;;;16.41;66.60;98787.16;2081868;28;20780;-68
2023/12/07 03:41:24;;;;;;;6.15;3.75;;;;;;;16.44;66.85;98786.78;2081232;28;20049;-68
2023/12/07 03:42:25;;;;;;;11.82;4.00;;;;;;;16.43;66.56;98784.28;2079841;28;20041;-68
2023/12/07 03:43:27;;;;;;;;;;;;;;;16.36;66.87;98791.41;2082550;28;20099;-69
2023/12/07 03:44:29;;;;;;;;;;;;;;;16.25;67.12;98788.16;2084340;28;19933;-69
2023/12/07 03:45:31;;;;;;;7.93;4.15;;;;;;;16.31;67.12;98789.28;2083869;28;20007;-68
2023/12/07 03:46:32;;;;;;;9.40;3.60;;;;;;;16.38;66.86;98789.34;2082258;28;20732;-68
2023/12/07 03:47:33;;;;;;;;;;;;;;;16.30;66.86;98788.44;2083382;28;20078;-68
2023/12/07 03:48:34;;;;;;;;;;;;;;;16.22;66.96;98790.38;2084396;28;19928;-68
2023/12/07 03:49:37;;;;;;;4.88;2.97;;;;;;;16.25;67.10;98796.19;2083603;28;20306;-68
2023/12/07 03:50:38;;;;;;;7.47;3.63;;;;;;;16.29;66.83;98792.13;2081558;28;26276;-68
2023/12/07 03:51:40;;;;;;;;;;;;;;;16.21;67.04;98799.41;2083956;28;20049;-70
2023/12/07 03:52:41;;;;;;;9.70;3.83;;;;;;;16.22;66.95;98793.88;2082379;28;19973;-69
2023/12/07 03:53:43;;;;;;;;;;;;;;;16.16;67.01;98799.97;2081019;28;20114;-68
2023/12/07 03:54:44;;;;;;;6.03;3.10;;;;;;;16.23;66.93;98800.91;2080962;28;19927;-69
2023/12/07 03:55:46;;;;;;;;;;;;;;;16.15;67.11;98800.97;2081828;28;20570;-68
2023/12/07 03:56:46;;;;;;;;;;;;;;;16.11;67.19;98805.06;2084209;28;20449;-69
2023/12/07 03:57:48;;;;;;;6.57;4.30;;;;;;;16.18;67.12;98808.63;2081448;28;19983;-67
2023/12/07 03:58:49;;;;;;;5.50;3.03;;;;;;;16.23;66.77;98808.91;2083348;28;21328;-68
2023/12/07 03:59:53;;;;;;;;;;;;;;;16.18;66.88;98815.84;2081126;28;20049;-70
2023/12/07 04:00:54;;;;;;;9.98;4.40;;;;;;;16.20;66.96;98809.28;2083337;28;19927;-69
2023/12/07 04:01:56;;;;;;;;;;;;;;;16.14;67.04;98809.22;2082894;28;20120;-68
2023/12/07 04:02:57;;;;;;;8.77;3.83;;;;;;;16.15;66.93;98811.69;2083742;28;19964;-68
2023/12/07 04:03:58;;;;;;;;;;;;;;;16.13;67.17;98811.06;2083470;28;20048;-68
2023/12/07 04:05:02;;;;;;;9.57;4.07;;;;;;;16.18;66.92;98811.31;2082851;28;19928;-68
2023/12/07 04:06:03;;;;;;;9.77;3.75;;;;;;;16.23;66.88;98802.75;2079938;28;20149;-68
2023/12/07 04:07:05;;;;;;;7.47;3.58;;;;;;;16.26;66.71;98805.88;2082232;28;20098;-68
2023/12/07 04:08:06;;;;;;;7.90;3.10;;;;;;;16.28;66.68;98803.84;2081608;28;20114;-68
2023/12/07 04:09:07;;;;;;;;;;;;;;;16.24;66.91;98805.25;2080555;28;20117;-68
2023/12/07 04:10:10;;;;;;;7.55;3.70;;;;;;;16.27;67.05;98804.06;2083270;28;19986;-68
2023/12/07 04:11:11;;;;;;;8.43;2.85;;;;;;;16.36;66.78;98815.50;2081692;28;20045;-68
2023/12/07 04:12:13;;;;;;;;;;;;;;;16.33;66.73;98810.50;2083338;28;20048;-68
2023/12/07 04:13:13;;;;;;;7.13;3.22;;;;;;;16.38;66.67;98818.78;2080389;28;20448;-70
2023/12/07 04:14:15;;;;;;;;;;;;;;;16.37;66.77;98812.63;2083189;28;20099;-68
2023/12/07 04:15:18;;;;;;;9.02;2.90;;;;;;;16.47;66.42;98812.34;2081698;28;19989;-68
2023/12/07 04:16:20;;;;;;;12.63;3.20;;;;;;;16.57;66.33;98810.19;2084540;28;20057;-66
2023/12/07 04:17:21;;;;;;;10.15;2.92;;;;;;;16.66;66.13;98811.78;2082776;28;20049;-69
2023/12/07 04:18:22;;;;;;;;;;;;;;;16.65;66.47;98812.78;2083517;28;20553;-68
2023/12/07 04:19:23;;;;;;;7.40;3.25;;;;;;;16.72;66.20;98813.72;2083312;28;19929;-67
2023/12/07 04:20:25;;;;;;;;;;;;;;;16.72;66.30;98813.72;2082084;28;20122;-68
2023/12/07 04:21:26;;;;;;;;;;;;;;;16.73;66.36;98815.38;2084450;28;19933;-68
2023/12/07 04:22:27;;;;;;;6.85;3.35;;;;;;;16.82;66.02;98807.25;2084449;28;19921;-68
2023/12/07 04:23:28;;;;;;;;;;;;;;;16.84;65.87;98819.44;2085621;28;20053;-68
2023/12/07 04:24:29;;;;;;;6.03;2.78;;;;;;;16.92;65.75;98807.78;2082917;28;19929;-68
2023/12/07 04:25:31;;;;;;;;;;;;;;;16.91;66.09;98817.69;2085167;28;20477;-68
2023/12/07 04:26:32;;;;;;;;;;;;;;;16.92;65.89;98818.50;2083495;28;19932;-68
2023/12/07 04:27:34;;;;;;;4.95;3.05;;;;;;;16.98;65.70;98818.56;2082215;28;19920;-68
2023/12/07 04:28:35;;;;;;;7.43;3.05;;;;;;;17.06;65.62;98825.69;2081270;28;20106;-68
2023/12/07 04:29:36;;;;;;;;;;;;;;;17.05;65.40;98831.22;2086520;28;20098;-68
2023/12/07 04:30:39;;;;;;;10.37;3.43;;;;;;;17.12;65.94;98829.47;2083966;28;19983;-69
2023/12/07 04:31:41;;;;;;;4.18;2.83;;;;;;;17.15;65.73;98829.91;2083722;28;20057;-68
2023/12/07 04:32:43;;;;;;;10.85;3.65;;;;;;;17.20;65.37;98826.66;2084932;28;20049;-67
2023/12/07 04:33:43;;;;;;;5.38;2.95;;;;;;;17.24;65.22;98829.78;2082796;28;20048;-68
2023/12/07 04:34:45;;;;;;;;;;;;;;;17.22;65.43;98829.13;2082807;28;20076;-68
2023/12/07 04:35:47;;;;;;;6.28;3.35;;;;;;;17.26;65.23;98833.13;2082729;28;19982;-69
2023/12/07 04:36:49;;;;;;;5.90;2.80;;;;;;;17.31;65.21;98828.00;2085211;28;20397;-68
2023/12/07 04:37:50;;;;;;;6.28;2.50;;;;;;;17.34;65.04;98833.81;2086336;28;20057;-68
2023/12/07 04:38:51;;;;;;;;;;;;;;;17.32;65.30;98829.66;2088295;28;20060;-67
2023/12/07 04:39:52;;;;;;;4.25;2.55;;;;;;;17.35;65.28;98838.16;2078491;28;19921;-68
2023/12/07 04:40:54;;;;;;;;;;;;;;;17.36;65.17;98839.00;2084457;28;20099;-68
2023/12/07 04:41:55;;;;;;;;;;;;;;;17.33;65.21;98836.72;2080456;28;19971;-67
2023/12/07 04:42:57;;;;;;;5.72;3.03;;;;;;;17.39;65.09;98836.75;2081274;28;20024;-68
2023/12/07 04:43:58;;;;;;;7.75;2.85;;;;;;;17.43;65.13;98842.56;2083366;28;20094;-68
2023/12/07 04:45:00;;;;;;;;;;;;;;;17.40;65.17;98840.28;2083742;28;20099;-67
2023/12/07 04:46:03;;;;;;;5.45;2.65;;;;;;;17.47;64.88;98840.31;2080431;28;20394;-68
2023/12/07 04:47:06;;;;;;;7.28;2.67;;;;;;;17.51;64.83;98834.41;2083531;28;21267;-67
2023/12/07 04:48:06;;;;;;;7.95;2.88;;;;;;;17.56;64.72;98836.50;2085687;28;20597;-68
2023/12/07 04:49:08;;;;;;;;;;;;;;;17.53;64.69;98840.41;2085844;28;20053;-68
2023/12/07 04:50:09;;;;;;;;;;;;;;;17.51;64.85;98837.09;2082611;28;19920;-68
2023/12/07 04:51:10;;;;;;;5.35;2.47;;;;;;;17.57;64.93;98839.00;2085575;28;19967;-67
2023/12/07 04:52:12;;;;;;;;;;;;;;;17.57;65.18;98835.47;2083910;28;20136;-68
2023/12/07 04:53:13;;;;;;;3.65;2.45;;;;;;;17.61;65.25;98834.91;2084743;28;19925;-68
2023/12/07 04:54:15;;;;;;;;;;;;;;;17.61;64.92;98842.13;2082293;28;20119;-68
2023/12/07 04:55:16;;;;;;;4.07;2.75;;;;;;;17.65;64.84;98836.19;2082984;28;19932;-67
2023/12/07 04:56:18;;;;;;;;;;;;;;;17.65;64.83;98841.53;2083715;28;20440;-68
2023/12/07 04:57:19;;;;;;;4.60;2.42;;;;;;;17.70;64.75;98838.28;2084621;28;19920;-68
2023/12/07 04:58:20;;;;;;;;;;;;;;;17.68;64.51;98834.97;2082925;28;20045;-68